sensor_id;sensor_type;location;lat;lon;timestamp;temperature;humidity
12309;DHT22;6217;48.150;17.142;2023-03-01T00:03:26;2.60;64.90
12309;DHT22;6217;48.150;17.142;2023-03-01T00:07:33;2.60;64.70
12309;DHT22;6217;48.150;17.142;2023-03-01T00:11:39;2.50;65.00
12309;DHT22;6217;48.150;17.142;2023-03-01T00:15:44;2.60;65.00
12309;DHT22;6217;48.150;17.142;2023-03-01T00:19:50;2.70;65.20
12309;DHT22;6217;48.150;17.142;2023-03-01T00:23:57;2.80;65.10
12309;DHT22;6217;48.150;17.142;2023-03-01T00:28:03;3.00;65.00
12309;DHT22;6217;48.150;17.142;2023-03-01T00:32:09;3.20;64.70
12309;DHT22;6217;48.150;17.142;2023-03-01T00:36:15;3.30;64.50
12309;DHT22;6217;48.150;17.142;2023-03-01T00:40:21;3.40;64.50
12309;DHT22;6217;48.150;17.142;2023-03-01T00:44:27;3.50;64.50
12309;DHT22;6217;48.150;17.142;2023-03-01T00:48:34;3.60;64.40
12309;DHT22;6217;48.150;17.142;2023-03-01T00:52:40;3.70;64.20
12309;DHT22;6217;48.150;17.142;2023-03-01T00:56:46;3.80;64.30
12309;DHT22;6217;48.150;17.142;2023-03-01T01:00:52;3.90;64.10
12309;DHT22;6217;48.150;17.142;2023-03-01T01:04:58;3.90;64.20
12309;DHT22;6217;48.150;17.142;2023-03-01T01:09:06;4.00;64.40
12309;DHT22;6217;48.150;17.142;2023-03-01T01:13:13;4.10;64.30
12309;DHT22;6217;48.150;17.142;2023-03-01T01:17:19;4.10;64.20
12309;DHT22;6217;48.150;17.142;2023-03-01T01:21:25;4.20;65.10
12309;DHT22;6217;48.150;17.142;2023-03-01T01:25:34;4.30;64.50
12309;DHT22;6217;48.150;17.142;2023-03-01T01:29:41;4.40;63.70
12309;DHT22;6217;48.150;17.142;2023-03-01T01:33:48;4.50;63.30
12309;DHT22;6217;48.150;17.142;2023-03-01T01:37:54;4.50;63.00
12309;DHT22;6217;48.150;17.142;2023-03-01T01:42:00;4.50;63.50
12309;DHT22;6217;48.150;17.142;2023-03-01T01:46:20;4.50;64.00
12309;DHT22;6217;48.150;17.142;2023-03-01T01:50:31;4.60;63.10
12309;DHT22;6217;48.150;17.142;2023-03-01T01:59:17;4.50;62.90
12309;DHT22;6217;48.150;17.142;2023-03-01T02:03:28;4.50;63.00
12309;DHT22;6217;48.150;17.142;2023-03-01T02:07:39;4.50;63.00
12309;DHT22;6217;48.150;17.142;2023-03-01T02:11:47;4.50;63.10
12309;DHT22;6217;48.150;17.142;2023-03-01T02:15:54;4.50;63.20
12309;DHT22;6217;48.150;17.142;2023-03-01T02:20:31;4.50;63.10
12309;DHT22;6217;48.150;17.142;2023-03-01T02:29:30;4.50;63.40
12309;DHT22;6217;48.150;17.142;2023-03-01T02:33:37;4.60;63.30
12309;DHT22;6217;48.150;17.142;2023-03-01T02:37:44;4.60;63.40
12309;DHT22;6217;48.150;17.142;2023-03-01T02:41:52;4.60;63.30
12309;DHT22;6217;48.150;17.142;2023-03-01T02:46:06;4.70;63.20
12309;DHT22;6217;48.150;17.142;2023-03-01T02:54:48;4.60;63.30
12309;DHT22;6217;48.150;17.142;2023-03-01T02:58:58;4.60;63.30
12309;DHT22;6217;48.150;17.142;2023-03-01T03:03:07;4.50;63.40
12309;DHT22;6217;48.150;17.142;2023-03-01T03:07:13;4.50;63.40
12309;DHT22;6217;48.150;17.142;2023-03-01T03:11:20;4.60;63.40
12309;DHT22;6217;48.150;17.142;2023-03-01T03:15:27;4.60;63.40
12309;DHT22;6217;48.150;17.142;2023-03-01T03:19:34;4.60;63.30
12309;DHT22;6217;48.150;17.142;2023-03-01T03:23:40;4.60;63.30
12309;DHT22;6217;48.150;17.142;2023-03-01T03:27:48;4.50;63.40
12309;DHT22;6217;48.150;17.142;2023-03-01T03:31:55;4.60;63.40
12309;DHT22;6217;48.150;17.142;2023-03-01T03:36:01;4.60;63.30
12309;DHT22;6217;48.150;17.142;2023-03-01T03:40:07;4.60;63.40
12309;DHT22;6217;48.150;17.142;2023-03-01T03:44:21;4.70;63.30
12309;DHT22;6217;48.150;17.142;2023-03-01T03:48:27;4.60;63.30
12309;DHT22;6217;48.150;17.142;2023-03-01T03:52:33;4.70;63.30
12309;DHT22;6217;48.150;17.142;2023-03-01T03:56:38;4.70;63.20
12309;DHT22;6217;48.150;17.142;2023-03-01T04:00:46;4.70;63.10
12309;DHT22;6217;48.150;17.142;2023-03-01T04:04:52;4.70;63.00
12309;DHT22;6217;48.150;17.142;2023-03-01T04:08:58;4.70;62.90
12309;DHT22;6217;48.150;17.142;2023-03-01T04:13:13;4.70;63.00
12309;DHT22;6217;48.150;17.142;2023-03-01T04:17:21;4.80;62.90
12309;DHT22;6217;48.150;17.142;2023-03-01T04:21:27;4.80;62.80
12309;DHT22;6217;48.150;17.142;2023-03-01T04:25:33;4.80;63.00
12309;DHT22;6217;48.150;17.142;2023-03-01T04:29:38;4.90;62.80
12309;DHT22;6217;48.150;17.142;2023-03-01T04:33:55;5.00;62.70
12309;DHT22;6217;48.150;17.142;2023-03-01T04:38:01;5.00;62.50
12309;DHT22;6217;48.150;17.142;2023-03-01T04:42:08;5.00;62.40
12309;DHT22;6217;48.150;17.142;2023-03-01T04:46:16;5.00;62.30
12309;DHT22;6217;48.150;17.142;2023-03-01T04:50:23;5.10;62.30
12309;DHT22;6217;48.150;17.142;2023-03-01T04:54:32;5.20;62.10
12309;DHT22;6217;48.150;17.142;2023-03-01T04:58:38;5.20;61.80
12309;DHT22;6217;48.150;17.142;2023-03-01T05:02:44;5.20;61.80
12309;DHT22;6217;48.150;17.142;2023-03-01T05:06:50;5.20;61.70
12309;DHT22;6217;48.150;17.142;2023-03-01T05:10:56;5.20;61.80
12309;DHT22;6217;48.150;17.142;2023-03-01T05:15:02;5.10;61.70
12309;DHT22;6217;48.150;17.142;2023-03-01T05:19:12;5.10;61.80
12309;DHT22;6217;48.150;17.142;2023-03-01T05:23:20;5.20;61.70
12309;DHT22;6217;48.150;17.142;2023-03-01T05:27:26;5.30;61.60
12309;DHT22;6217;48.150;17.142;2023-03-01T05:31:32;5.30;61.50
12309;DHT22;6217;48.150;17.142;2023-03-01T05:35:43;5.20;61.60
12309;DHT22;6217;48.150;17.142;2023-03-01T05:39:50;5.20;61.50
12309;DHT22;6217;48.150;17.142;2023-03-01T05:43:57;5.20;61.50
12309;DHT22;6217;48.150;17.142;2023-03-01T05:48:04;5.30;61.40
12309;DHT22;6217;48.150;17.142;2023-03-01T05:52:10;5.40;61.40
12309;DHT22;6217;48.150;17.142;2023-03-01T05:56:16;5.40;61.30
12309;DHT22;6217;48.150;17.142;2023-03-01T06:00:22;5.50;61.20
12309;DHT22;6217;48.150;17.142;2023-03-01T06:04:28;5.50;61.10
12309;DHT22;6217;48.150;17.142;2023-03-01T06:08:34;5.60;61.10
12309;DHT22;6217;48.150;17.142;2023-03-01T06:12:41;5.70;60.90
12309;DHT22;6217;48.150;17.142;2023-03-01T06:16:47;5.70;60.80
12309;DHT22;6217;48.150;17.142;2023-03-01T06:20:54;5.80;60.70
12309;DHT22;6217;48.150;17.142;2023-03-01T06:25:01;5.90;60.40
12309;DHT22;6217;48.150;17.142;2023-03-01T06:29:07;5.90;60.30
12309;DHT22;6217;48.150;17.142;2023-03-01T06:33:14;5.90;60.20
12309;DHT22;6217;48.150;17.142;2023-03-01T06:37:20;6.00;60.10
12309;DHT22;6217;48.150;17.142;2023-03-01T06:41:25;6.00;59.90
12309;DHT22;6217;48.150;17.142;2023-03-01T06:45:31;6.20;59.70
12309;DHT22;6217;48.150;17.142;2023-03-01T06:49:37;6.30;59.30
12309;DHT22;6217;48.150;17.142;2023-03-01T06:53:45;6.40;59.20
12309;DHT22;6217;48.150;17.142;2023-03-01T06:58:02;6.30;59.30
12309;DHT22;6217;48.150;17.142;2023-03-01T07:02:12;6.30;59.40
12309;DHT22;6217;48.150;17.142;2023-03-01T07:06:19;6.30;59.30
12309;DHT22;6217;48.150;17.142;2023-03-01T07:10:25;6.30;59.30
12309;DHT22;6217;48.150;17.142;2023-03-01T07:14:31;6.40;59.00
12309;DHT22;6217;48.150;17.142;2023-03-01T07:18:36;6.40;59.60
12309;DHT22;6217;48.150;17.142;2023-03-01T07:22:42;6.50;59.00
12309;DHT22;6217;48.150;17.142;2023-03-01T07:26:50;6.60;58.90
12309;DHT22;6217;48.150;17.142;2023-03-01T07:31:01;6.80;58.80
12309;DHT22;6217;48.150;17.142;2023-03-01T07:35:08;7.10;58.10
12309;DHT22;6217;48.150;17.142;2023-03-01T07:39:14;7.40;57.50
12309;DHT22;6217;48.150;17.142;2023-03-01T07:43:20;7.60;57.30
12309;DHT22;6217;48.150;17.142;2023-03-01T07:47:26;7.60;56.90
12309;DHT22;6217;48.150;17.142;2023-03-01T07:51:32;7.60;57.10
12309;DHT22;6217;48.150;17.142;2023-03-01T07:55:38;7.60;56.70
12309;DHT22;6217;48.150;17.142;2023-03-01T07:59:44;7.70;57.00
12309;DHT22;6217;48.150;17.142;2023-03-01T08:03:50;7.90;56.90
12309;DHT22;6217;48.150;17.142;2023-03-01T08:07:56;7.90;56.70
12309;DHT22;6217;48.150;17.142;2023-03-01T08:12:02;7.80;56.90
12309;DHT22;6217;48.150;17.142;2023-03-01T08:16:11;7.80;56.80
12309;DHT22;6217;48.150;17.142;2023-03-01T08:20:18;7.70;56.80
12309;DHT22;6217;48.150;17.142;2023-03-01T08:24:24;7.70;56.70
12309;DHT22;6217;48.150;17.142;2023-03-01T08:28:30;8.00;56.80
12309;DHT22;6217;48.150;17.142;2023-03-01T08:32:38;8.40;56.00
12309;DHT22;6217;48.150;17.142;2023-03-01T08:36:46;8.70;55.40
12309;DHT22;6217;48.150;17.142;2023-03-01T08:40:52;9.00;55.10
12309;DHT22;6217;48.150;17.142;2023-03-01T08:44:58;9.60;54.60
12309;DHT22;6217;48.150;17.142;2023-03-01T08:49:05;10.00;54.20
12309;DHT22;6217;48.150;17.142;2023-03-01T08:53:12;10.40;53.60
12309;DHT22;6217;48.150;17.142;2023-03-01T08:57:18;10.60;53.30
12309;DHT22;6217;48.150;17.142;2023-03-01T09:01:24;10.50;53.20
12309;DHT22;6217;48.150;17.142;2023-03-01T09:05:33;10.20;53.70
12309;DHT22;6217;48.150;17.142;2023-03-01T09:09:39;10.00;54.30
12309;DHT22;6217;48.150;17.142;2023-03-01T09:13:46;10.00;54.40
12309;DHT22;6217;48.150;17.142;2023-03-01T09:17:53;9.90;54.50
12309;DHT22;6217;48.150;17.142;2023-03-01T09:21:59;9.70;54.60
12309;DHT22;6217;48.150;17.142;2023-03-01T09:26:07;9.80;55.00
12309;DHT22;6217;48.150;17.142;2023-03-01T09:30:14;10.00;54.70
12309;DHT22;6217;48.150;17.142;2023-03-01T09:34:21;10.00;54.10
12309;DHT22;6217;48.150;17.142;2023-03-01T09:38:29;9.80;53.90
12309;DHT22;6217;48.150;17.142;2023-03-01T09:42:36;9.60;54.00
12309;DHT22;6217;48.150;17.142;2023-03-01T09:46:52;9.50;54.30
12309;DHT22;6217;48.150;17.142;2023-03-01T09:50:58;9.60;54.40
12309;DHT22;6217;48.150;17.142;2023-03-01T09:55:14;9.50;54.30
12309;DHT22;6217;48.150;17.142;2023-03-01T09:59:44;9.40;54.70
12309;DHT22;6217;48.150;17.142;2023-03-01T10:09:00;9.50;54.70
12309;DHT22;6217;48.150;17.142;2023-03-01T10:13:29;9.50;54.80
12309;DHT22;6217;48.150;17.142;2023-03-01T10:22:20;9.80;54.20
12309;DHT22;6217;48.150;17.142;2023-03-01T10:30:50;9.70;53.90
12309;DHT22;6217;48.150;17.142;2023-03-01T10:34:57;9.70;54.10
12309;DHT22;6217;48.150;17.142;2023-03-01T10:39:12;9.70;54.00
12309;DHT22;6217;48.150;17.142;2023-03-01T10:43:26;9.70;53.80
12309;DHT22;6217;48.150;17.142;2023-03-01T10:47:38;9.70;53.70
12309;DHT22;6217;48.150;17.142;2023-03-01T10:51:45;9.60;53.60
12309;DHT22;6217;48.150;17.142;2023-03-01T10:56:18;9.50;53.50
12309;DHT22;6217;48.150;17.142;2023-03-01T11:00:25;9.60;53.60
12309;DHT22;6217;48.150;17.142;2023-03-01T11:04:31;9.80;53.60
12309;DHT22;6217;48.150;17.142;2023-03-01T11:08:48;9.90;53.30
12309;DHT22;6217;48.150;17.142;2023-03-01T11:13:17;10.10;53.10
12309;DHT22;6217;48.150;17.142;2023-03-01T11:17:28;10.30;52.70
12309;DHT22;6217;48.150;17.142;2023-03-01T11:26:07;11.10;52.20
12309;DHT22;6217;48.150;17.142;2023-03-01T11:30:28;11.40;51.80
12309;DHT22;6217;48.150;17.142;2023-03-01T11:43:56;11.60;51.90
12309;DHT22;6217;48.150;17.142;2023-03-01T12:06:24;11.70;52.00
12309;DHT22;6217;48.150;17.142;2023-03-01T12:11:11;11.80;51.40
12309;DHT22;6217;48.150;17.142;2023-03-01T12:16:03;11.90;51.50
12309;DHT22;6217;48.150;17.142;2023-03-01T12:25:16;11.80;51.40
12309;DHT22;6217;48.150;17.142;2023-03-01T12:38:50;11.80;51.60
12309;DHT22;6217;48.150;17.142;2023-03-01T12:43:41;11.80;51.50
12309;DHT22;6217;48.150;17.142;2023-03-01T12:52:55;11.70;51.30
12309;DHT22;6217;48.150;17.142;2023-03-01T12:57:14;11.50;52.00
12309;DHT22;6217;48.150;17.142;2023-03-01T13:01:54;11.40;51.50
12309;DHT22;6217;48.150;17.142;2023-03-01T13:06:08;11.40;51.40
12309;DHT22;6217;48.150;17.142;2023-03-01T13:10:43;11.40;51.70
12309;DHT22;6217;48.150;17.142;2023-03-01T13:14:54;11.30;51.60
12309;DHT22;6217;48.150;17.142;2023-03-01T13:19:13;11.50;51.90
12309;DHT22;6217;48.150;17.142;2023-03-01T13:27:28;11.50;51.60
12309;DHT22;6217;48.150;17.142;2023-03-01T13:35:44;11.60;51.90
12309;DHT22;6217;48.150;17.142;2023-03-01T13:39:50;11.60;51.80
12309;DHT22;6217;48.150;17.142;2023-03-01T13:43:57;11.50;51.90
12309;DHT22;6217;48.150;17.142;2023-03-01T13:48:23;11.50;51.70
12309;DHT22;6217;48.150;17.142;2023-03-01T13:52:52;11.40;52.00
12309;DHT22;6217;48.150;17.142;2023-03-01T13:57:01;11.40;52.10
12309;DHT22;6217;48.150;17.142;2023-03-01T14:01:24;11.30;52.20
12309;DHT22;6217;48.150;17.142;2023-03-01T14:05:43;11.00;52.60
12309;DHT22;6217;48.150;17.142;2023-03-01T14:10:05;10.80;52.90
12309;DHT22;6217;48.150;17.142;2023-03-01T14:19:31;10.40;53.70
12309;DHT22;6217;48.150;17.142;2023-03-01T14:23:23;10.30;53.80
12309;DHT22;6217;48.150;17.142;2023-03-01T14:27:35;10.40;53.90
12309;DHT22;6217;48.150;17.142;2023-03-01T14:31:44;10.30;54.00
12309;DHT22;6217;48.150;17.142;2023-03-01T14:36:07;10.30;54.10
12309;DHT22;6217;48.150;17.142;2023-03-01T14:40:35;10.30;54.20
12309;DHT22;6217;48.150;17.142;2023-03-01T14:44:46;10.30;54.30
12309;DHT22;6217;48.150;17.142;2023-03-01T14:48:57;10.30;54.40
12309;DHT22;6217;48.150;17.142;2023-03-01T14:53:19;10.30;54.50
12309;DHT22;6217;48.150;17.142;2023-03-01T14:57:26;10.30;54.60
12309;DHT22;6217;48.150;17.142;2023-03-01T15:01:32;10.40;55.20
12309;DHT22;6217;48.150;17.142;2023-03-01T15:05:40;10.30;54.50
12309;DHT22;6217;48.150;17.142;2023-03-01T15:09:47;10.30;54.70
12309;DHT22;6217;48.150;17.142;2023-03-01T15:13:54;10.40;54.80
12309;DHT22;6217;48.150;17.142;2023-03-01T15:18:11;10.40;54.80
12309;DHT22;6217;48.150;17.142;2023-03-01T15:22:21;10.30;55.00
12309;DHT22;6217;48.150;17.142;2023-03-01T15:26:31;10.20;55.10
12309;DHT22;6217;48.150;17.142;2023-03-01T15:30:40;10.20;55.20
12309;DHT22;6217;48.150;17.142;2023-03-01T15:34:46;10.10;55.40
12309;DHT22;6217;48.150;17.142;2023-03-01T15:38:54;10.10;55.60
12309;DHT22;6217;48.150;17.142;2023-03-01T15:43:04;10.10;55.80
12309;DHT22;6217;48.150;17.142;2023-03-01T15:47:27;10.00;55.90
12309;DHT22;6217;48.150;17.142;2023-03-01T15:51:36;10.00;56.10
12309;DHT22;6217;48.150;17.142;2023-03-01T15:55:42;10.00;56.10
12309;DHT22;6217;48.150;17.142;2023-03-01T15:59:49;9.90;56.20
12309;DHT22;6217;48.150;17.142;2023-03-01T16:03:55;9.90;56.30
12309;DHT22;6217;48.150;17.142;2023-03-01T16:08:03;9.80;56.40
12309;DHT22;6217;48.150;17.142;2023-03-01T16:12:16;9.80;56.50
12309;DHT22;6217;48.150;17.142;2023-03-01T16:16:22;9.70;56.70
12309;DHT22;6217;48.150;17.142;2023-03-01T16:20:29;9.70;56.80
12309;DHT22;6217;48.150;17.142;2023-03-01T16:24:35;9.60;56.90
12309;DHT22;6217;48.150;17.142;2023-03-01T16:28:42;9.60;57.20
12309;DHT22;6217;48.150;17.142;2023-03-01T16:32:49;9.50;57.30
12309;DHT22;6217;48.150;17.142;2023-03-01T16:36:55;9.40;57.40
12309;DHT22;6217;48.150;17.142;2023-03-01T16:41:01;9.40;57.40
12309;DHT22;6217;48.150;17.142;2023-03-01T16:45:08;9.30;57.60
12309;DHT22;6217;48.150;17.142;2023-03-01T16:49:14;9.20;57.80
12309;DHT22;6217;48.150;17.142;2023-03-01T16:53:20;9.10;58.00
12309;DHT22;6217;48.150;17.142;2023-03-01T16:57:26;9.10;58.20
12309;DHT22;6217;48.150;17.142;2023-03-01T17:01:32;8.90;58.40
12309;DHT22;6217;48.150;17.142;2023-03-01T17:05:46;8.80;58.50
12309;DHT22;6217;48.150;17.142;2023-03-01T17:09:52;8.70;58.60
12309;DHT22;6217;48.150;17.142;2023-03-01T17:13:58;8.70;58.80
12309;DHT22;6217;48.150;17.142;2023-03-01T17:18:04;8.60;58.90
12309;DHT22;6217;48.150;17.142;2023-03-01T17:22:11;8.50;59.10
12309;DHT22;6217;48.150;17.142;2023-03-01T17:26:18;8.40;59.20
12309;DHT22;6217;48.150;17.142;2023-03-01T17:30:24;8.40;59.40
12309;DHT22;6217;48.150;17.142;2023-03-01T17:34:32;8.20;59.70
12309;DHT22;6217;48.150;17.142;2023-03-01T17:38:38;8.20;59.90
12309;DHT22;6217;48.150;17.142;2023-03-01T17:42:44;8.10;60.10
12309;DHT22;6217;48.150;17.142;2023-03-01T17:46:50;8.10;60.30
12309;DHT22;6217;48.150;17.142;2023-03-01T17:50:56;8.00;60.50
12309;DHT22;6217;48.150;17.142;2023-03-01T17:55:02;7.90;60.70
12309;DHT22;6217;48.150;17.142;2023-03-01T17:59:09;7.90;60.90
12309;DHT22;6217;48.150;17.142;2023-03-01T18:03:16;7.80;61.00
12309;DHT22;6217;48.150;17.142;2023-03-01T18:07:22;7.80;61.30
12309;DHT22;6217;48.150;17.142;2023-03-01T18:11:27;7.70;61.50
12309;DHT22;6217;48.150;17.142;2023-03-01T18:15:33;7.70;61.70
12309;DHT22;6217;48.150;17.142;2023-03-01T18:19:40;7.60;61.80
12309;DHT22;6217;48.150;17.142;2023-03-01T18:23:46;7.60;62.00
12309;DHT22;6217;48.150;17.142;2023-03-01T18:27:52;7.60;62.00
12309;DHT22;6217;48.150;17.142;2023-03-01T18:31:57;7.50;62.20
12309;DHT22;6217;48.150;17.142;2023-03-01T18:36:04;7.50;62.30
12309;DHT22;6217;48.150;17.142;2023-03-01T18:40:11;7.50;62.50
12309;DHT22;6217;48.150;17.142;2023-03-01T18:44:18;7.40;62.70
12309;DHT22;6217;48.150;17.142;2023-03-01T18:48:24;7.40;62.90
12309;DHT22;6217;48.150;17.142;2023-03-01T18:52:30;7.30;63.20
12309;DHT22;6217;48.150;17.142;2023-03-01T18:56:36;7.20;63.40
12309;DHT22;6217;48.150;17.142;2023-03-01T19:00:42;7.20;63.40
12309;DHT22;6217;48.150;17.142;2023-03-01T19:04:49;7.10;63.80
12309;DHT22;6217;48.150;17.142;2023-03-01T19:08:55;7.00;64.00
12309;DHT22;6217;48.150;17.142;2023-03-01T19:13:01;7.00;64.20
12309;DHT22;6217;48.150;17.142;2023-03-01T19:17:07;6.90;64.40
12309;DHT22;6217;48.150;17.142;2023-03-01T19:21:13;6.90;64.60
12309;DHT22;6217;48.150;17.142;2023-03-01T19:25:19;6.80;65.60
12309;DHT22;6217;48.150;17.142;2023-03-01T19:29:25;6.80;65.00
12309;DHT22;6217;48.150;17.142;2023-03-01T19:33:32;6.80;65.20
12309;DHT22;6217;48.150;17.142;2023-03-01T19:37:39;6.80;65.30
12309;DHT22;6217;48.150;17.142;2023-03-01T19:41:44;6.70;65.60
12309;DHT22;6217;48.150;17.142;2023-03-01T19:45:54;6.70;65.90
12309;DHT22;6217;48.150;17.142;2023-03-01T19:50:00;6.70;66.00
12309;DHT22;6217;48.150;17.142;2023-03-01T19:54:06;6.60;66.10
12309;DHT22;6217;48.150;17.142;2023-03-01T19:58:14;6.50;66.30
12309;DHT22;6217;48.150;17.142;2023-03-01T20:02:20;6.60;66.40
12309;DHT22;6217;48.150;17.142;2023-03-01T20:06:26;6.50;66.50
12309;DHT22;6217;48.150;17.142;2023-03-01T20:10:33;6.50;66.70
12309;DHT22;6217;48.150;17.142;2023-03-01T20:14:39;6.50;66.60
12309;DHT22;6217;48.150;17.142;2023-03-01T20:18:45;6.40;66.80
12309;DHT22;6217;48.150;17.142;2023-03-01T20:22:51;6.40;67.00
12309;DHT22;6217;48.150;17.142;2023-03-01T20:27:00;6.30;67.20
12309;DHT22;6217;48.150;17.142;2023-03-01T20:31:09;6.30;68.00
12309;DHT22;6217;48.150;17.142;2023-03-01T20:35:15;6.20;67.50
12309;DHT22;6217;48.150;17.142;2023-03-01T20:39:21;6.10;67.80
12309;DHT22;6217;48.150;17.142;2023-03-01T20:43:27;6.10;68.10
12309;DHT22;6217;48.150;17.142;2023-03-01T20:47:33;6.10;68.20
12309;DHT22;6217;48.150;17.142;2023-03-01T20:51:39;6.10;68.30
12309;DHT22;6217;48.150;17.142;2023-03-01T20:55:45;6.00;68.50
12309;DHT22;6217;48.150;17.142;2023-03-01T20:59:52;5.90;68.80
12309;DHT22;6217;48.150;17.142;2023-03-01T21:03:58;5.90;69.00
12309;DHT22;6217;48.150;17.142;2023-03-01T21:08:04;5.90;68.90
12309;DHT22;6217;48.150;17.142;2023-03-01T21:12:11;5.90;69.00
12309;DHT22;6217;48.150;17.142;2023-03-01T21:16:17;5.90;69.20
12309;DHT22;6217;48.150;17.142;2023-03-01T21:20:23;5.90;69.10
12309;DHT22;6217;48.150;17.142;2023-03-01T21:24:31;5.90;69.20
12309;DHT22;6217;48.150;17.142;2023-03-01T21:28:37;5.90;69.50
12309;DHT22;6217;48.150;17.142;2023-03-01T21:32:43;5.90;69.50
12309;DHT22;6217;48.150;17.142;2023-03-01T21:36:49;5.80;69.60
12309;DHT22;6217;48.150;17.142;2023-03-01T21:40:55;5.80;69.90
12309;DHT22;6217;48.150;17.142;2023-03-01T21:45:02;5.80;69.90
12309;DHT22;6217;48.150;17.142;2023-03-01T21:49:09;5.80;70.00
12309;DHT22;6217;48.150;17.142;2023-03-01T21:53:15;5.80;69.90
12309;DHT22;6217;48.150;17.142;2023-03-01T21:57:21;5.80;70.00
12309;DHT22;6217;48.150;17.142;2023-03-01T22:01:28;5.70;70.20
12309;DHT22;6217;48.150;17.142;2023-03-01T22:05:34;5.70;70.20
12309;DHT22;6217;48.150;17.142;2023-03-01T22:09:40;5.70;70.30
12309;DHT22;6217;48.150;17.142;2023-03-01T22:13:48;5.70;70.50
12309;DHT22;6217;48.150;17.142;2023-03-01T22:17:56;5.60;70.50
12309;DHT22;6217;48.150;17.142;2023-03-01T22:22:02;5.60;70.60
12309;DHT22;6217;48.150;17.142;2023-03-01T22:26:19;5.50;70.80
12309;DHT22;6217;48.150;17.142;2023-03-01T22:30:27;5.50;71.20
12309;DHT22;6217;48.150;17.142;2023-03-01T22:34:33;5.50;71.30
12309;DHT22;6217;48.150;17.142;2023-03-01T22:38:38;5.50;71.30
12309;DHT22;6217;48.150;17.142;2023-03-01T22:42:44;5.40;71.40
12309;DHT22;6217;48.150;17.142;2023-03-01T22:46:51;5.40;71.50
12309;DHT22;6217;48.150;17.142;2023-03-01T22:50:57;5.30;71.60
12309;DHT22;6217;48.150;17.142;2023-03-01T22:55:03;5.30;72.00
12309;DHT22;6217;48.150;17.142;2023-03-01T22:59:12;5.30;72.30
12309;DHT22;6217;48.150;17.142;2023-03-01T23:03:19;5.20;72.70
12309;DHT22;6217;48.150;17.142;2023-03-01T23:07:25;5.10;72.90
12309;DHT22;6217;48.150;17.142;2023-03-01T23:11:31;5.10;72.90
12309;DHT22;6217;48.150;17.142;2023-03-01T23:15:37;5.10;73.00
12309;DHT22;6217;48.150;17.142;2023-03-01T23:19:46;5.10;73.20
12309;DHT22;6217;48.150;17.142;2023-03-01T23:23:56;5.10;73.60
12309;DHT22;6217;48.150;17.142;2023-03-01T23:28:02;5.00;73.70
12309;DHT22;6217;48.150;17.142;2023-03-01T23:32:08;5.00;73.80
12309;DHT22;6217;48.150;17.142;2023-03-01T23:36:21;4.90;73.90
12309;DHT22;6217;48.150;17.142;2023-03-01T23:40:28;5.00;74.00
12309;DHT22;6217;48.150;17.142;2023-03-01T23:44:34;5.00;73.80
12309;DHT22;6217;48.150;17.142;2023-03-01T23:48:43;5.00;74.10
12309;DHT22;6217;48.150;17.142;2023-03-01T23:52:49;5.10;74.10
12309;DHT22;6217;48.150;17.142;2023-03-01T23:56:55;5.20;73.90
